KMTO/MTO METAR and TAF weather

Enter ICAO airport designator
Station Type Date Time Source
KMTO METAR 2022/10/01 08:53 UTC NOAA

KMTO 010853Z AUTO 34004KT 10SM CLR 04/02 A3011 RMK AO2 SLP196 T00390022 51002


Station Type Date Time Source
KMTO Decoded METAR 2022/10/01 08:53 UTC NOAA

MATTOON/CHARLESTON COLES CO, IL, United States (KMTO) 39-28N 88-16W 214M
Oct 01, 2022 - 04:53 AM EDT / 2022.10.01 0853 UTC
Wind: from the NNW (340 degrees) at 5 MPH (4 KT):0
Visibility: 10 mile(s):0
Sky conditions: clear
Temperature: 39.0 F (3.9 C)
Dew Point: 36.0 F (2.2 C)
Relative Humidity: 88%
Pressure (altimeter): 30.11 in. Hg (1019 hPa)
Pressure tendency: 0.01 inches (0.2 hPa) higher than three hours ago
ob: KMTO 010853Z AUTO 34004KT 10SM CLR 04/02 A3011 RMK AO2 SLP196 T00390022 51002
cycle: 9

Station Type Date Time Source
KMTO TAF UTC NOAA

Error!

Example: see airport list